Time;durP1;ratioP1;P1;durP2;ratioP2;P2;SDS_P1;SDS_P2;PMS_P1;PMS_P2;Temp;Humidity;BMP_temperature;BMP_pressure;BME280_temperature;BME280_humidity;BME280_pressure;Samples;Min_cycle;Max_cycle;Signal;HPM_P1;HPM_P2
2023/10/04 00:00:15;;;;;;;;;;;22.40;50.80;;;;;;3051757;19;4683;-28
2023/10/04 00:01:16;;;;;;;;;;;22.40;50.70;;;;;;3053996;19;4990;-26
2023/10/04 00:02:17;;;;;;;;;;;22.40;50.70;;;;;;3051086;19;4572;-29
2023/10/04 00:03:18;;;;;;;;;;;22.40;50.70;;;;;;3051648;19;4843;-29
2023/10/04 00:04:19;;;;;;;;;;;22.30;50.60;;;;;;3052287;19;4681;-27
2023/10/04 00:05:23;;;;;;;;;;;22.30;50.80;;;;;;3053016;19;4516;-27
2023/10/04 00:06:23;;;;;;;;;;;22.30;50.70;;;;;;3053410;19;4689;-27
2023/10/04 00:07:24;;;;;;;;;;;22.90;50.90;;;;;;3053329;19;4534;-31
2023/10/04 00:08:25;;;;;;;;;;;22.30;50.70;;;;;;3053966;19;4656;-26
2023/10/04 00:09:26;;;;;;;;;;;22.40;50.60;;;;;;3052970;19;4672;-29
2023/10/04 00:10:26;;;;;;;;;;;22.30;50.70;;;;;;3053879;19;4542;-28
2023/10/04 00:11:27;;;;;;;;;;;22.30;50.70;;;;;;3053891;19;4742;-28
2023/10/04 00:12:28;;;;;;;;;;;22.30;50.60;;;;;;3052775;19;4821;-30
2023/10/04 00:13:29;;;;;;;;;;;22.30;50.40;;;;;;3053606;19;4678;-31
2023/10/04 00:14:30;;;;;;;;;;;22.30;50.40;;;;;;3053344;19;4885;-27
2023/10/04 00:15:31;;;;;;;;;;;22.30;50.50;;;;;;3051479;19;4620;-29
2023/10/04 00:16:32;;;;;;;;;;;22.30;50.50;;;;;;3053258;19;4680;-29
2023/10/04 00:17:33;;;;;;;;;;;22.30;50.50;;;;;;3053914;19;4635;-28
2023/10/04 00:18:33;;;;;;;;;;;22.30;50.40;;;;;;3053413;19;4540;-29
2023/10/04 00:19:34;;;;;;;;;;;22.30;50.40;;;;;;3054220;19;4644;-30
2023/10/04 00:20:35;;;;;;;;;;;22.30;50.40;;;;;;3052611;19;4642;-29
2023/10/04 00:21:35;;;;;;;;;;;22.30;50.40;;;;;;3053725;19;4598;-32
2023/10/04 00:22:36;;;;;;;;;;;22.30;50.50;;;;;;3052033;19;4752;-28
2023/10/04 00:23:38;;;;;;;;;;;22.30;50.40;;;;;;3053110;19;4506;-25
2023/10/04 00:24:39;;;;;;;;;;;22.30;50.40;;;;;;3053393;19;4693;-27
2023/10/04 00:25:40;;;;;;;;;;;22.30;50.30;;;;;;3053327;19;4699;-30
2023/10/04 00:26:42;;;;;;;;;;;22.30;50.30;;;;;;3052983;19;4680;-31
2023/10/04 00:27:42;;;;;;;;;;;22.30;50.30;;;;;;3053605;19;4659;-28
2023/10/04 00:28:43;;;;;;;;;;;22.30;50.40;;;;;;3052997;19;4642;-31
2023/10/04 00:29:44;;;;;;;;;;;22.30;50.50;;;;;;3053637;19;4642;-25
2023/10/04 00:30:44;;;;;;;;;;;22.30;50.30;;;;;;3053510;19;4645;-28
2023/10/04 00:31:47;;;;;;;;;;;22.20;50.40;;;;;;3053294;19;4659;-27
2023/10/04 00:32:48;;;;;;;;;;;22.20;50.40;;;;;;3053124;19;4723;-27
2023/10/04 00:33:49;;;;;;;;;;;22.20;50.20;;;;;;3052064;19;4620;-26
2023/10/04 00:34:51;;;;;;;;;;;22.20;50.20;;;;;;3052456;19;4779;-30
2023/10/04 00:35:51;;;;;;;;;;;22.20;50.20;;;;;;3053630;19;4654;-29
2023/10/04 00:36:52;;;;;;;;;;;22.20;50.40;;;;;;3053596;19;4622;-31
2023/10/04 00:37:56;;;;;;;;;;;22.20;50.40;;;;;;3052212;19;4685;-30
2023/10/04 00:38:57;;;;;;;;;;;22.20;50.30;;;;;;3052973;19;4653;-28
2023/10/04 00:39:58;;;;;;;;;;;22.20;50.30;;;;;;3052024;19;4623;-29
2023/10/04 00:40:59;;;;;;;;;;;22.20;50.20;;;;;;3051800;19;4534;-27
2023/10/04 00:42:00;;;;;;;;;;;22.20;50.20;;;;;;3051774;19;4606;-31
2023/10/04 00:43:01;;;;;;;;;;;22.20;50.30;;;;;;3052134;19;4604;-26
2023/10/04 00:44:04;;;;;;;;;;;22.20;50.00;;;;;;3052655;19;4564;-29
2023/10/04 00:45:05;;;;;;;;;;;22.20;50.00;;;;;;3050660;19;4714;-32
2023/10/04 00:46:07;;;;;;;;;;;22.20;50.20;;;;;;3052125;19;4539;-32
2023/10/04 00:47:09;;;;;;;;;;;22.20;50.00;;;;;;3050926;19;4492;-31
2023/10/04 00:48:13;;;;;;;;;;;22.00;50.10;;;;;;3053507;19;953;-31
2023/10/04 00:49:15;;;;;;;;;;;22.20;50.20;;;;;;3051564;19;4726;-33
2023/10/04 00:50:16;;;;;;;;;;;22.20;50.30;;;;;;3051019;19;4519;-32
2023/10/04 00:51:16;;;;;;;;;;;22.10;49.90;;;;;;3051375;19;4798;-31
2023/10/04 00:52:19;;;;;;;;;;;22.20;50.20;;;;;;3050704;19;4795;-33
2023/10/04 00:53:23;;;;;;;;;;;22.10;50.10;;;;;;3051852;19;4547;-31
2023/10/04 00:54:23;;;;;;;;;;;22.10;50.00;;;;;;3052793;19;4641;-28
2023/10/04 00:55:24;;;;;;;;;;;22.20;50.20;;;;;;3051671;19;4529;-27
2023/10/04 00:56:25;;;;;;;;;;;22.10;50.00;;;;;;3051789;19;4669;-27
2023/10/04 00:57:25;;;;;;;;;;;22.10;50.10;;;;;;3051759;19;4620;-28
2023/10/04 00:58:28;;;;;;;;;;;22.20;50.10;;;;;;3051655;19;4608;-29
2023/10/04 00:59:28;;;;;;;;;;;22.10;50.10;;;;;;3050770;19;4682;-27
2023/10/04 01:00:29;;;;;;;;;;;22.20;50.00;;;;;;3051210;19;4648;-31
2023/10/04 01:01:32;;;;;;;;;;;22.10;50.00;;;;;;3052097;19;4642;-27
2023/10/04 01:02:33;;;;;;;;;;;22.10;50.10;;;;;;3053808;19;4655;-30
2023/10/04 01:03:37;;;;;;;;;;;22.10;50.00;;;;;;3051711;19;4526;-29
2023/10/04 01:04:37;;;;;;;;;;;22.10;50.00;;;;;;3053651;19;4636;-26
2023/10/04 01:05:40;;;;;;;;;;;22.10;50.00;;;;;;3054242;19;4788;-31
2023/10/04 01:06:41;;;;;;;;;;;22.10;50.00;;;;;;3052319;19;4580;-28
2023/10/04 01:07:42;;;;;;;;;;;22.50;50.30;;;;;;3052424;19;4692;-26
2023/10/04 01:08:43;;;;;;;;;;;22.10;50.10;;;;;;3052295;19;4690;-26
2023/10/04 01:09:44;;;;;;;;;;;22.10;50.40;;;;;;3052223;19;4832;-30
2023/10/04 01:10:46;;;;;;;;;;;22.30;52.90;;;;;;3053472;19;4637;-30
2023/10/04 01:11:48;;;;;;;;;;;22.10;50.10;;;;;;3052537;19;4607;-28
2023/10/04 01:12:49;;;;;;;;;;;22.10;49.80;;;;;;3052619;19;4644;-30
2023/10/04 01:14:06;;;;;;;;;;;22.10;49.90;;;;;;3050910;19;4742;-29
2023/10/04 01:16:26;;;;;;;;;;;22.10;49.90;;;;;;2949136;19;2004443;-30
2023/10/04 01:17:28;;;;;;;;;;;22.10;49.90;;;;;;3052818;19;4668;-28
2023/10/04 01:18:29;;;;;;;;;;;22.10;49.90;;;;;;3051829;19;4656;-27
2023/10/04 01:19:30;;;;;;;;;;;22.10;50.00;;;;;;3051186;19;4502;-30
2023/10/04 01:20:31;;;;;;;;;;;22.10;50.00;;;;;;3053537;19;4663;-27
2023/10/04 01:21:31;;;;;;;;;;;22.10;49.90;;;;;;3052676;19;4684;-29
2023/10/04 01:22:32;;;;;;;;;;;22.10;49.70;;;;;;3052406;19;4521;-31
2023/10/04 01:23:33;;;;;;;;;;;22.10;50.00;;;;;;3051806;19;4667;-29
2023/10/04 01:24:34;;;;;;;;;;;22.00;49.80;;;;;;3052777;19;4647;-26
2023/10/04 01:25:35;;;;;;;;;;;22.00;50.00;;;;;;3053523;19;4653;-28
2023/10/04 01:26:37;;;;;;;;;;;22.00;49.80;;;;;;3052088;19;4821;-26
2023/10/04 01:27:38;;;;;;;;;;;22.30;50.00;;;;;;3052059;19;4510;-29
2023/10/04 01:28:40;;;;;;;;;;;22.00;49.90;;;;;;3050819;19;4655;-30
2023/10/04 01:29:41;;;;;;;;;;;22.00;49.90;;;;;;3052887;19;4647;-30
2023/10/04 01:30:42;;;;;;;;;;;22.00;49.80;;;;;;3052269;19;4640;-29
2023/10/04 01:31:43;;;;;;;;;;;22.00;49.70;;;;;;3051965;19;4622;-29
2023/10/04 01:32:43;;;;;;;;;;;22.00;49.80;;;;;;3052357;19;4691;-27
2023/10/04 01:33:44;;;;;;;;;;;22.00;50.00;;;;;;3053207;19;4657;-28
2023/10/04 01:34:45;;;;;;;;;;;22.00;49.80;;;;;;3052141;19;4722;-31
2023/10/04 01:35:46;;;;;;;;;;;22.00;49.70;;;;;;3050935;19;4504;-27
2023/10/04 01:36:47;;;;;;;;;;;22.00;49.80;;;;;;3052928;19;4759;-30
2023/10/04 01:37:48;;;;;;;;;;;22.00;49.90;;;;;;3052455;19;4672;-25
2023/10/04 01:38:48;;;;;;;;;;;22.00;49.90;;;;;;3052687;19;4802;-28
2023/10/04 01:39:49;;;;;;;;;;;22.00;49.70;;;;;;3051738;19;4777;-27
2023/10/04 01:40:49;;;;;;;;;;;22.00;49.70;;;;;;3051570;19;4853;-30
2023/10/04 01:41:51;;;;;;;;;;;22.00;49.70;;;;;;3051532;19;4627;-29
2023/10/04 01:42:54;;;;;;;;;;;22.00;49.90;;;;;;3052088;19;4732;-28
2023/10/04 01:44:02;;;;;;;;;;;22.00;49.80;;;;;;3050422;19;4550;-31
2023/10/04 01:45:10;;;;;;;;;;;22.00;49.90;;;;;;3050821;19;4668;-30
2023/10/04 01:46:12;;;;;;;;;;;22.00;49.80;;;;;;3049511;19;4617;-28
2023/10/04 01:47:13;;;;;;;;;;;22.00;49.80;;;;;;3050816;19;4636;-31
2023/10/04 01:48:23;;;;;;;;;;;22.00;49.90;;;;;;3051918;19;4639;-31
2023/10/04 01:49:25;;;;;;;;;;;22.00;49.80;;;;;;3051033;19;4557;-30
2023/10/04 01:50:29;;;;;;;;;;;22.00;49.90;;;;;;3049100;19;4682;-29
2023/10/04 01:51:32;;;;;;;;;;;22.00;49.80;;;;;;3049511;19;4522;-28
2023/10/04 01:52:33;;;;;;;;;;;22.00;49.80;;;;;;3051782;19;4672;-29
2023/10/04 01:53:35;;;;;;;;;;;22.00;49.80;;;;;;3051502;19;4675;-27
2023/10/04 01:54:35;;;;;;;;;;;22.00;50.00;;;;;;3051114;19;4526;-29
2023/10/04 01:55:36;;;;;;;;;;;22.00;49.80;;;;;;3051859;19;4646;-27
2023/10/04 01:56:41;;;;;;;;;;;21.90;49.70;;;;;;3051086;19;4606;-29
2023/10/04 01:57:43;;;;;;;;;;;21.90;49.80;;;;;;3051610;19;4654;-30
2023/10/04 01:58:48;;;;;;;;;;;21.90;49.80;;;;;;3051716;19;4640;-29
2023/10/04 01:59:49;;;;;;;;;;;21.90;49.70;;;;;;3051993;19;4428;-28
2023/10/04 02:00:50;;;;;;;;;;;21.90;49.80;;;;;;3051154;19;4771;-28
2023/10/04 02:01:51;;;;;;;;;;;23.00;50.40;;;;;;3051338;19;4665;-32
2023/10/04 02:02:51;;;;;;;;;;;21.90;49.70;;;;;;3050920;19;4591;-28
2023/10/04 02:03:53;;;;;;;;;;;21.90;49.60;;;;;;3052090;19;4653;-29
2023/10/04 02:04:54;;;;;;;;;;;21.90;49.70;;;;;;3051098;19;4729;-33
2023/10/04 02:05:56;;;;;;;;;;;21.90;49.70;;;;;;3051867;19;4644;-30
2023/10/04 02:06:57;;;;;;;;;;;21.90;49.50;;;;;;3051790;19;4588;-32
2023/10/04 02:07:58;;;;;;;;;;;21.90;49.80;;;;;;3050988;19;4495;-35
2023/10/04 02:09:00;;;;;;;;;;;21.90;49.80;;;;;;3052104;19;4552;-32
2023/10/04 02:10:00;;;;;;;;;;;21.90;49.70;;;;;;3050271;19;4693;-32
2023/10/04 02:11:03;;;;;;;;;;;21.90;49.70;;;;;;3050878;19;4626;-32
2023/10/04 02:12:04;;;;;;;;;;;21.90;49.70;;;;;;3049509;19;4623;-31
2023/10/04 02:13:11;;;;;;;;;;;21.90;49.90;;;;;;3050262;19;4614;-33
2023/10/04 02:14:12;;;;;;;;;;;21.90;50.10;;;;;;3048426;19;4539;-33
2023/10/04 02:15:15;;;;;;;;;;;21.90;49.90;;;;;;3050121;19;4528;-34
2023/10/04 02:16:21;;;;;;;;;;;21.90;49.80;;;;;;3050658;19;4572;-31
2023/10/04 02:17:22;;;;;;;;;;;21.90;49.80;;;;;;3049784;19;4672;-31
2023/10/04 02:18:22;;;;;;;;;;;21.90;50.00;;;;;;3050310;19;4557;-33
2023/10/04 02:19:24;;;;;;;;;;;21.90;50.00;;;;;;3050799;19;4647;-31
2023/10/04 02:20:25;;;;;;;;;;;21.90;49.90;;;;;;3050578;19;4678;-33
2023/10/04 02:21:26;;;;;;;;;;;21.90;50.00;;;;;;3051591;19;4607;-34
2023/10/04 02:22:28;;;;;;;;;;;21.90;49.90;;;;;;3051284;19;4679;-31
2023/10/04 02:23:29;;;;;;;;;;;21.90;50.00;;;;;;3051026;19;4491;-31
2023/10/04 02:24:30;;;;;;;;;;;21.90;50.00;;;;;;3052010;19;4752;-31
2023/10/04 02:25:31;;;;;;;;;;;21.90;50.10;;;;;;3051063;19;4810;-32
2023/10/04 02:26:35;;;;;;;;;;;21.90;50.00;;;;;;3051542;19;4532;-35
2023/10/04 02:27:36;;;;;;;;;;;21.90;50.70;;;;;;3051292;19;4659;-32
2023/10/04 02:28:36;;;;;;;;;;;21.80;49.90;;;;;;3049274;19;4641;-33
2023/10/04 02:29:44;;;;;;;;;;;21.80;50.10;;;;;;3049471;19;4666;-34
2023/10/04 02:30:47;;;;;;;;;;;21.90;50.10;;;;;;3050899;19;4655;-32
2023/10/04 02:31:48;;;;;;;;;;;21.90;50.20;;;;;;3049411;19;4441;-32
2023/10/04 02:32:52;;;;;;;;;;;21.80;50.40;;;;;;3050837;19;4652;-33
2023/10/04 02:33:53;;;;;;;;;;;21.80;50.20;;;;;;3049407;19;5145;-33
2023/10/04 02:34:54;;;;;;;;;;;21.90;50.10;;;;;;3050347;19;4582;-32
2023/10/04 02:35:56;;;;;;;;;;;21.80;50.10;;;;;;3051742;19;4667;-33
2023/10/04 02:36:56;;;;;;;;;;;21.80;50.00;;;;;;3051264;19;4654;-33
2023/10/04 02:38:09;;;;;;;;;;;21.80;50.00;;;;;;3052731;19;4626;-32
2023/10/04 02:39:11;;;;;;;;;;;21.80;50.30;;;;;;3050711;19;4477;-32
2023/10/04 02:40:15;;;;;;;;;;;21.80;50.30;;;;;;3052276;19;4664;-32
2023/10/04 02:41:15;;;;;;;;;;;21.80;50.30;;;;;;3050233;19;4682;-32
2023/10/04 02:42:21;;;;;;;;;;;21.80;50.30;;;;;;3051683;19;4565;-32
2023/10/04 02:43:27;;;;;;;;;;;21.80;50.20;;;;;;3051070;19;4826;-31
2023/10/04 02:44:29;;;;;;;;;;;21.80;50.20;;;;;;3049308;19;4741;-30
2023/10/04 02:45:30;;;;;;;;;;;21.80;50.40;;;;;;3049154;19;4664;-33
2023/10/04 02:46:31;;;;;;;;;;;21.80;50.30;;;;;;3051563;19;4638;-34
2023/10/04 02:47:31;;;;;;;;;;;21.80;50.20;;;;;;3050322;19;4507;-31
2023/10/04 02:48:34;;;;;;;;;;;21.80;50.30;;;;;;3051058;19;4622;-32
2023/10/04 02:49:39;;;;;;;;;;;21.80;50.30;;;;;;3051787;19;4657;-31
2023/10/04 02:50:40;;;;;;;;;;;21.80;50.40;;;;;;3051784;19;4631;-31
2023/10/04 02:51:44;;;;;;;;;;;21.80;50.30;;;;;;3051658;19;4665;-34
2023/10/04 02:52:46;;;;;;;;;;;21.80;50.40;;;;;;3051664;19;4641;-31
2023/10/04 02:53:46;;;;;;;;;;;21.80;50.60;;;;;;3052496;19;4626;-32
2023/10/04 02:54:47;;;;;;;;;;;21.80;50.70;;;;;;3051530;19;4591;-31
2023/10/04 02:55:49;;;;;;;;;;;21.80;50.50;;;;;;3050453;19;4512;-32
2023/10/04 02:56:50;;;;;;;;;;;21.80;50.40;;;;;;3050813;19;4632;-33
2023/10/04 02:57:51;;;;;;;;;;;21.80;50.50;;;;;;3050076;19;4635;-33
2023/10/04 02:58:52;;;;;;;;;;;21.80;50.50;;;;;;3051798;19;4640;-34
2023/10/04 02:59:54;;;;;;;;;;;21.80;50.50;;;;;;3051729;19;4611;-33
2023/10/04 03:00:57;;;;;;;;;;;21.80;50.40;;;;;;3051192;19;4600;-31
2023/10/04 03:01:58;;;;;;;;;;;21.80;50.50;;;;;;3051469;19;4605;-31
2023/10/04 03:02:59;;;;;;;;;;;21.80;50.60;;;;;;3051505;19;4534;-32
2023/10/04 03:04:01;;;;;;;;;;;21.70;50.70;;;;;;3050935;19;4564;-31
2023/10/04 03:05:02;;;;;;;;;;;21.80;50.50;;;;;;3054251;19;4605;-32
2023/10/04 03:06:03;;;;;;;;;;;21.70;50.60;;;;;;3054496;19;4594;-31
2023/10/04 03:07:05;;;;;;;;;;;21.70;50.40;;;;;;3054128;19;4564;-32
2023/10/04 03:08:07;;;;;;;;;;;21.70;50.50;;;;;;3053700;19;4591;-34
2023/10/04 03:09:08;;;;;;;;;;;21.70;50.80;;;;;;3053732;19;4448;-32
2023/10/04 03:10:11;;;;;;;;;;;21.70;50.50;;;;;;3053960;19;4641;-31
2023/10/04 03:11:12;;;;;;;;;;;21.70;50.60;;;;;;3053629;19;4557;-32
2023/10/04 03:12:12;;;;;;;;;;;21.70;50.60;;;;;;3052292;19;4781;-31
2023/10/04 03:13:16;;;;;;;;;;;21.70;50.40;;;;;;3051420;19;4666;-31
2023/10/04 03:14:16;;;;;;;;;;;21.70;50.70;;;;;;3052093;19;4542;-32
2023/10/04 03:15:17;;;;;;;;;;;21.70;50.40;;;;;;3051163;19;4642;-28
2023/10/04 03:16:18;;;;;;;;;;;21.70;50.50;;;;;;3053691;19;4681;-31
2023/10/04 03:17:19;;;;;;;;;;;21.70;50.50;;;;;;3053028;19;4546;-31
2023/10/04 03:18:20;;;;;;;;;;;21.70;50.50;;;;;;3052500;19;4675;-31
2023/10/04 03:19:20;;;;;;;;;;;21.40;50.50;;;;;;3052750;19;4591;-32
2023/10/04 03:20:23;;;;;;;;;;;21.70;50.70;;;;;;3053823;19;4933;-33
2023/10/04 03:21:28;;;;;;;;;;;21.70;50.50;;;;;;3054381;19;4656;-32
2023/10/04 03:22:29;;;;;;;;;;;21.70;50.60;;;;;;3053418;19;4714;-33
2023/10/04 03:23:34;;;;;;;;;;;21.80;50.60;;;;;;3054743;19;4661;-32
2023/10/04 03:24:35;;;;;;;;;;;21.70;50.60;;;;;;3053172;19;4656;-33
2023/10/04 03:25:36;;;;;;;;;;;21.70;50.70;;;;;;3053161;19;4662;-32
2023/10/04 03:26:37;;;;;;;;;;;21.70;50.70;;;;;;3054598;19;4691;-31
2023/10/04 03:27:43;;;;;;;;;;;21.70;50.70;;;;;;3052006;19;4508;-31
2023/10/04 03:28:43;;;;;;;;;;;21.70;50.70;;;;;;3053090;19;4662;-32
2023/10/04 03:29:44;;;;;;;;;;;21.70;50.70;;;;;;3052997;19;4702;-32
2023/10/04 03:30:45;;;;;;;;;;;21.70;51.00;;;;;;3053218;19;4610;-32
2023/10/04 03:31:48;;;;;;;;;;;21.70;50.80;;;;;;3053664;19;4664;-31
2023/10/04 03:32:52;;;;;;;;;;;21.70;50.80;;;;;;3053775;19;4605;-32
2023/10/04 03:33:55;;;;;;;;;;;21.70;50.80;;;;;;3052973;19;4633;-31
2023/10/04 03:34:56;;;;;;;;;;;21.70;51.00;;;;;;3054370;19;4608;-33
2023/10/04 03:35:58;;;;;;;;;;;21.70;50.80;;;;;;3053650;19;4536;-33
2023/10/04 03:37:08;;;;;;;;;;;21.70;50.80;;;;;;3054298;19;4615;-31
2023/10/04 03:38:09;;;;;;;;;;;21.70;50.80;;;;;;3053775;19;4426;-31
2023/10/04 03:39:10;;;;;;;;;;;21.70;51.10;;;;;;3052713;19;4685;-35
2023/10/04 03:40:15;;;;;;;;;;;21.70;51.00;;;;;;3054449;19;4632;-32
2023/10/04 03:41:19;;;;;;;;;;;21.70;50.90;;;;;;3053852;19;4505;-30
2023/10/04 03:42:19;;;;;;;;;;;21.70;51.00;;;;;;3055074;19;4760;-34
2023/10/04 03:43:20;;;;;;;;;;;21.70;51.00;;;;;;3052903;19;4477;-32
2023/10/04 03:44:21;;;;;;;;;;;21.70;51.70;;;;;;3052632;19;4876;-31
2023/10/04 03:45:23;;;;;;;;;;;21.70;51.10;;;;;;3052652;19;4732;-35
2023/10/04 03:46:23;;;;;;;;;;;21.70;51.60;;;;;;3052625;19;4549;-31
2023/10/04 03:47:25;;;;;;;;;;;21.70;51.70;;;;;;3055087;19;4638;-34
2023/10/04 03:48:26;;;;;;;;;;;21.80;51.10;;;;;;3052963;19;4655;-33
2023/10/04 03:49:27;;;;;;;;;;;21.90;51.10;;;;;;3053212;19;4619;-36
2023/10/04 03:50:28;;;;;;;;;;;21.90;51.20;;;;;;3054535;19;4633;-31
2023/10/04 03:51:29;;;;;;;;;;;22.00;51.20;;;;;;3053558;19;4495;-30
2023/10/04 03:52:31;;;;;;;;;;;22.00;51.30;;;;;;3053510;19;4753;-32
2023/10/04 03:53:31;;;;;;;;;;;22.00;51.10;;;;;;3054432;19;4753;-34
2023/10/04 03:54:33;;;;;;;;;;;22.00;51.30;;;;;;3053353;19;4628;-31
2023/10/04 03:55:33;;;;;;;;;;;22.00;51.50;;;;;;3054497;19;4667;-33
2023/10/04 03:56:34;;;;;;;;;;;22.00;50.70;;;;;;3053619;19;4639;-30
2023/10/04 03:57:35;;;;;;;;;;;22.00;50.70;;;;;;3054761;19;4766;-32
2023/10/04 03:58:36;;;;;;;;;;;22.00;50.90;;;;;;3055058;19;4606;-34
2023/10/04 03:59:37;;;;;;;;;;;22.00;50.50;;;;;;3054524;19;4493;-33
2023/10/04 04:00:39;;;;;;;;;;;22.00;50.60;;;;;;3054381;19;4726;-34
2023/10/04 04:01:39;;;;;;;;;;;22.00;50.60;;;;;;3054201;19;4660;-32
2023/10/04 04:02:40;;;;;;;;;;;22.10;50.60;;;;;;3054043;19;4667;-31
2023/10/04 04:03:41;;;;;;;;;;;22.00;50.70;;;;;;3054946;19;4673;-31
2023/10/04 04:04:42;;;;;;;;;;;22.00;50.80;;;;;;3053350;19;4662;-33
2023/10/04 04:05:44;;;;;;;;;;;22.00;50.50;;;;;;3054393;19;4620;-33
2023/10/04 04:06:44;;;;;;;;;;;22.00;50.40;;;;;;3053375;19;4834;-35
2023/10/04 04:07:45;;;;;;;;;;;22.00;51.00;;;;;;3052724;19;4495;-30
2023/10/04 04:08:46;;;;;;;;;;;22.00;50.80;;;;;;3053107;19;4632;-31
2023/10/04 04:09:47;;;;;;;;;;;22.00;50.70;;;;;;3053749;19;4550;-35
2023/10/04 04:10:49;;;;;;;;;;;22.00;50.70;;;;;;3053874;19;4630;-33
2023/10/04 04:11:52;;;;;;;;;;;22.00;50.60;;;;;;3054331;19;4608;-32
2023/10/04 04:12:54;;;;;;;;;;;22.00;51.20;;;;;;3053985;19;4998;-32
2023/10/04 04:13:57;;;;;;;;;;;22.10;51.50;;;;;;3052993;19;4800;-32
2023/10/04 04:14:58;;;;;;;;;;;22.10;51.30;;;;;;3053390;19;4595;-30
2023/10/04 04:15:59;;;;;;;;;;;22.10;51.00;;;;;;3051694;19;4564;-34
2023/10/04 04:17:00;;;;;;;;;;;22.10;50.90;;;;;;3053509;19;4690;-33
2023/10/04 04:18:06;;;;;;;;;;;22.10;51.20;;;;;;3053899;19;4673;-30
2023/10/04 04:19:08;;;;;;;;;;;22.10;51.10;;;;;;3053950;19;4566;-32
2023/10/04 04:20:19;;;;;;;;;;;22.10;51.00;;;;;;3053903;19;4700;-31
2023/10/04 04:21:20;;;;;;;;;;;22.10;51.10;;;;;;3052834;19;4580;-32
2023/10/04 04:22:24;;;;;;;;;;;22.10;50.90;;;;;;3054488;19;4644;-30
2023/10/04 04:23:25;;;;;;;;;;;22.10;51.00;;;;;;3053318;19;4483;-31
2023/10/04 04:24:25;;;;;;;;;;;22.20;51.20;;;;;;3053824;19;4670;-32
2023/10/04 04:25:28;;;;;;;;;;;22.20;51.10;;;;;;3054546;19;4638;-34
2023/10/04 04:26:29;;;;;;;;;;;22.10;51.00;;;;;;3053106;19;4703;-32
2023/10/04 04:27:30;;;;;;;;;;;22.10;51.10;;;;;;3053934;19;4653;-33
2023/10/04 04:28:30;;;;;;;;;;;22.10;51.00;;;;;;3053425;19;4666;-32
2023/10/04 04:29:31;;;;;;;;;;;22.20;51.10;;;;;;3051581;19;4648;-33
2023/10/04 04:30:32;;;;;;;;;;;22.10;50.90;;;;;;3054331;19;4794;-31
2023/10/04 04:31:33;;;;;;;;;;;22.20;50.80;;;;;;3052995;19;4620;-34
2023/10/04 04:32:33;;;;;;;;;;;22.10;50.90;;;;;;3053315;19;4813;-32
2023/10/04 04:33:34;;;;;;;;;;;22.20;50.80;;;;;;3054493;19;4642;-31
2023/10/04 04:34:35;;;;;;;;;;;22.10;50.90;;;;;;3052539;19;4549;-31
2023/10/04 04:36:46;;;;;;;;;;;22.10;51.00;;;;;;3053466;19;4782;-33
2023/10/04 04:37:48;;;;;;;;;;;22.10;51.00;;;;;;3054021;19;4619;-33
2023/10/04 04:38:48;;;;;;;;;;;22.10;51.50;;;;;;3053084;19;4650;-32
2023/10/04 04:39:50;;;;;;;;;;;22.10;50.90;;;;;;3051268;19;4898;-32
2023/10/04 04:40:54;;;;;;;;;;;22.10;51.60;;;;;;3052811;19;4603;-31
2023/10/04 04:41:56;;;;;;;;;;;22.20;50.70;;;;;;3052311;19;4672;-34
2023/10/04 04:43:17;;;;;;;;;;;22.30;50.50;;;;;;3050308;19;4640;-33
2023/10/04 04:44:22;;;;;;;;;;;22.30;50.30;;;;;;2950362;19;2004418;-31
2023/10/04 04:45:25;;;;;;;;;;;22.30;50.60;;;;;;3052442;19;4577;-30
2023/10/04 04:46:25;;;;;;;;;;;22.30;50.50;;;;;;3053415;19;4839;-31
2023/10/04 04:47:26;;;;;;;;;;;22.30;50.50;;;;;;3053515;19;4512;-35
2023/10/04 04:48:29;;;;;;;;;;;22.30;50.70;;;;;;3054921;19;4788;-32
2023/10/04 04:49:29;;;;;;;;;;;22.30;50.70;;;;;;3052264;19;4626;-34
2023/10/04 04:50:30;;;;;;;;;;;22.30;50.80;;;;;;3053536;19;4545;-31
2023/10/04 04:51:31;;;;;;;;;;;22.30;50.70;;;;;;3054631;19;4685;-30
2023/10/04 04:52:33;;;;;;;;;;;22.30;50.80;;;;;;3053111;19;4828;-32
2023/10/04 04:53:34;;;;;;;;;;;22.30;50.60;;;;;;3054318;19;4649;-31
2023/10/04 04:54:34;;;;;;;;;;;22.30;50.60;;;;;;3054150;19;4595;-34
2023/10/04 04:55:35;;;;;;;;;;;22.30;50.70;;;;;;3053629;19;4459;-34
2023/10/04 04:56:36;;;;;;;;;;;22.30;50.80;;;;;;3054166;19;4678;-33
2023/10/04 04:57:37;;;;;;;;;;;22.30;50.70;;;;;;3054145;19;4638;-35
2023/10/04 04:58:38;;;;;;;;;;;22.20;50.80;;;;;;3052606;19;4541;-33
2023/10/04 04:59:42;;;;;;;;;;;22.20;50.60;;;;;;3053369;19;4604;-34
2023/10/04 05:00:43;;;;;;;;;;;22.20;50.70;;;;;;3053757;19;4654;-33
2023/10/04 05:01:44;;;;;;;;;;;22.20;50.70;;;;;;3054329;19;4618;-32
2023/10/04 05:02:45;;;;;;;;;;;22.20;50.70;;;;;;3054124;19;4606;-32
2023/10/04 05:03:46;;;;;;;;;;;22.30;50.70;;;;;;3053723;19;4444;-36
2023/10/04 05:04:47;;;;;;;;;;;22.20;50.60;;;;;;3052465;19;4761;-34
2023/10/04 05:05:49;;;;;;;;;;;22.20;50.90;;;;;;3052915;19;4773;-32
2023/10/04 05:06:51;;;;;;;;;;;22.20;50.60;;;;;;3054042;19;4637;-34
2023/10/04 05:07:51;;;;;;;;;;;22.20;50.60;;;;;;3053969;19;4708;-33
2023/10/04 05:08:56;;;;;;;;;;;22.20;50.70;;;;;;3053976;19;4792;-35
2023/10/04 05:09:57;;;;;;;;;;;22.20;50.70;;;;;;3052875;19;4726;-32
2023/10/04 05:10:59;;;;;;;;;;;22.20;50.80;;;;;;3053057;19;4581;-36
2023/10/04 05:12:02;;;;;;;;;;;22.20;51.30;;;;;;3051672;19;4503;-33
2023/10/04 05:13:04;;;;;;;;;;;22.30;51.40;;;;;;3053291;19;4542;-31
2023/10/04 05:14:05;;;;;;;;;;;22.30;50.60;;;;;;3052373;19;4559;-32
2023/10/04 05:15:21;;;;;;;;;;;22.40;50.70;;;;;;3053955;19;4576;-34
2023/10/04 05:16:22;;;;;;;;;;;22.40;51.00;;;;;;3051683;19;4619;-31
2023/10/04 05:17:23;;;;;;;;;;;22.40;50.90;;;;;;3054592;19;4800;-34
2023/10/04 05:18:23;;;;;;;;;;;22.40;50.70;;;;;;3054216;19;4725;-34
2023/10/04 05:19:25;;;;;;;;;;;22.40;50.90;;;;;;3052545;19;4544;-30
2023/10/04 05:20:27;;;;;;;;;;;22.40;50.50;;;;;;3053384;19;4828;-34
2023/10/04 05:21:28;;;;;;;;;;;22.40;50.70;;;;;;3052867;19;4679;-31
2023/10/04 05:22:29;;;;;;;;;;;22.40;50.90;;;;;;3054124;19;4549;-35
2023/10/04 05:23:29;;;;;;;;;;;22.40;50.70;;;;;;3052713;19;4595;-34
2023/10/04 05:24:31;;;;;;;;;;;22.40;50.60;;;;;;3052641;19;4703;-32
2023/10/04 05:25:32;;;;;;;;;;;22.40;50.60;;;;;;3052965;19;4642;-32
2023/10/04 05:26:35;;;;;;;;;;;22.40;50.50;;;;;;3051440;19;4674;-32
2023/10/04 05:27:36;;;;;;;;;;;22.40;50.60;;;;;;3052760;19;4514;-31
2023/10/04 05:28:37;;;;;;;;;;;22.40;50.80;;;;;;3053290;19;4655;-33
2023/10/04 05:29:38;;;;;;;;;;;22.40;50.60;;;;;;3053979;19;4658;-35
2023/10/04 05:30:41;;;;;;;;;;;22.40;50.60;;;;;;3052755;19;4568;-32
2023/10/04 05:31:42;;;;;;;;;;;22.40;50.60;;;;;;3052554;19;5056;-31
2023/10/04 05:32:44;;;;;;;;;;;22.40;50.60;;;;;;3051490;19;4648;-31
2023/10/04 05:33:44;;;;;;;;;;;22.40;50.60;;;;;;3053254;19;4663;-31
2023/10/04 05:34:48;;;;;;;;;;;22.80;50.80;;;;;;3052915;19;4692;-33
2023/10/04 05:35:53;;;;;;;;;;;22.40;50.60;;;;;;3052473;19;4549;-31
2023/10/04 05:36:53;;;;;;;;;;;22.40;50.70;;;;;;3051247;19;4622;-32
2023/10/04 05:37:54;;;;;;;;;;;22.30;50.50;;;;;;3052372;19;4599;-35
2023/10/04 05:38:56;;;;;;;;;;;22.30;50.40;;;;;;3052290;19;4562;-32
2023/10/04 05:39:57;;;;;;;;;;;22.30;50.50;;;;;;3051340;19;4727;-31
2023/10/04 05:40:57;;;;;;;;;;;22.30;50.60;;;;;;3050400;19;4758;-32
2023/10/04 05:41:58;;;;;;;;;;;22.30;50.40;;;;;;3052581;19;4702;-33
2023/10/04 05:43:00;;;;;;;;;;;22.30;50.60;;;;;;3052373;19;4681;-32
2023/10/04 05:44:01;;;;;;;;;;;22.30;50.60;;;;;;3050754;19;4540;-34
2023/10/04 05:45:03;;;;;;;;;;;22.30;50.50;;;;;;3049422;19;4600;-37
2023/10/04 05:46:06;;;;;;;;;;;22.30;50.50;;;;;;3049656;19;4585;-36
2023/10/04 05:47:07;;;;;;;;;;;22.30;50.20;;;;;;3050933;19;4765;-35
2023/10/04 05:48:09;;;;;;;;;;;22.30;50.60;;;;;;3052575;19;4788;-33
2023/10/04 05:49:09;;;;;;;;;;;22.40;51.50;;;;;;3051427;19;4657;-33
2023/10/04 05:50:13;;;;;;;;;;;22.40;51.00;;;;;;3051697;19;4625;-33
2023/10/04 05:51:15;;;;;;;;;;;22.40;51.00;;;;;;3050838;19;3995;-32
2023/10/04 05:52:17;;;;;;;;;;;22.50;50.40;;;;;;3051614;19;4635;-30
2023/10/04 05:53:21;;;;;;;;;;;22.50;50.30;;;;;;3051749;19;4637;-31
2023/10/04 05:54:22;;;;;;;;;;;22.50;50.60;;;;;;3051197;19;4493;-33
2023/10/04 05:55:23;;;;;;;;;;;22.50;50.50;;;;;;3050744;19;4648;-34
2023/10/04 05:56:25;;;;;;;;;;;22.50;50.60;;;;;;3051567;19;4623;-35
2023/10/04 05:57:26;;;;;;;;;;;22.50;50.40;;;;;;3053011;19;4944;-32
2023/10/04 05:58:27;;;;;;;;;;;22.20;50.30;;;;;;3053423;19;4861;-31
2023/10/04 05:59:27;;;;;;;;;;;22.50;50.40;;;;;;3050904;19;4564;-32
2023/10/04 06:00:28;;;;;;;;;;;22.50;50.30;;;;;;3052937;19;4652;-32
2023/10/04 06:01:29;;;;;;;;;;;22.50;50.50;;;;;;3052184;19;4656;-36
2023/10/04 06:02:29;;;;;;;;;;;22.50;50.60;;;;;;3052285;19;4519;-33
2023/10/04 06:03:32;;;;;;;;;;;22.50;50.60;;;;;;3052237;19;4665;-31
2023/10/04 06:04:33;;;;;;;;;;;22.50;50.40;;;;;;3051386;19;4641;-33
2023/10/04 06:05:38;;;;;;;;;;;22.50;50.40;;;;;;3051921;19;4694;-34
2023/10/04 06:06:40;;;;;;;;;;;22.50;50.60;;;;;;3050890;19;4989;-33
2023/10/04 06:07:40;;;;;;;;;;;22.40;50.10;;;;;;3050905;19;4502;-35